sensor_id;sensor_type;location;lat;lon;timestamp;P1;durP1;ratioP1;P2;durP2;ratioP2
19189;SDS011;9727;50.200;19.038;2023-07-09T00:01:03;10.77;;;6.30;;
19189;SDS011;9727;50.200;19.038;2023-07-09T00:03:32;9.00;;;6.13;;
19189;SDS011;9727;50.200;19.038;2023-07-09T00:05:58;9.90;;;5.90;;
19189;SDS011;9727;50.200;19.038;2023-07-09T00:08:28;12.43;;;6.00;;
19189;SDS011;9727;50.200;19.038;2023-07-09T00:10:56;9.90;;;6.20;;
19189;SDS011;9727;50.200;19.038;2023-07-09T00:13:23;8.90;;;6.30;;
19189;SDS011;9727;50.200;19.038;2023-07-09T00:15:53;9.03;;;6.50;;
19189;SDS011;9727;50.200;19.038;2023-07-09T00:18:21;10.53;;;6.30;;
19189;SDS011;9727;50.200;19.038;2023-07-09T00:20:50;9.37;;;6.33;;
19189;SDS011;9727;50.200;19.038;2023-07-09T00:23:17;9.63;;;6.07;;
19189;SDS011;9727;50.200;19.038;2023-07-09T00:25:45;9.33;;;6.67;;
19189;SDS011;9727;50.200;19.038;2023-07-09T00:28:12;9.63;;;6.83;;
19189;SDS011;9727;50.200;19.038;2023-07-09T00:30:40;9.97;;;6.67;;
19189;SDS011;9727;50.200;19.038;2023-07-09T00:33:07;9.23;;;6.57;;
19189;SDS011;9727;50.200;19.038;2023-07-09T00:35:37;10.30;;;6.57;;
19189;SDS011;9727;50.200;19.038;2023-07-09T00:38:09;9.70;;;6.63;;
19189;SDS011;9727;50.200;19.038;2023-07-09T00:40:44;12.77;;;7.07;;
19189;SDS011;9727;50.200;19.038;2023-07-09T00:43:12;11.67;;;6.97;;
19189;SDS011;9727;50.200;19.038;2023-07-09T00:45:43;10.00;;;6.83;;
19189;SDS011;9727;50.200;19.038;2023-07-09T00:48:11;11.67;;;7.53;;
19189;SDS011;9727;50.200;19.038;2023-07-09T00:50:39;11.77;;;6.87;;
19189;SDS011;9727;50.200;19.038;2023-07-09T00:53:11;10.27;;;7.13;;
19189;SDS011;9727;50.200;19.038;2023-07-09T00:55:42;10.50;;;7.20;;
19189;SDS011;9727;50.200;19.038;2023-07-09T00:58:11;11.67;;;7.10;;
19189;SDS011;9727;50.200;19.038;2023-07-09T01:00:41;10.50;;;7.53;;
19189;SDS011;9727;50.200;19.038;2023-07-09T01:03:12;11.87;;;7.60;;
19189;SDS011;9727;50.200;19.038;2023-07-09T01:05:41;12.53;;;8.17;;
19189;SDS011;9727;50.200;19.038;2023-07-09T01:08:08;11.43;;;7.90;;
19189;SDS011;9727;50.200;19.038;2023-07-09T01:10:37;11.30;;;8.00;;
19189;SDS011;9727;50.200;19.038;2023-07-09T01:13:08;11.20;;;7.93;;
19189;SDS011;9727;50.200;19.038;2023-07-09T01:15:35;11.60;;;7.37;;
19189;SDS011;9727;50.200;19.038;2023-07-09T01:18:02;10.77;;;8.20;;
19189;SDS011;9727;50.200;19.038;2023-07-09T01:20:35;11.30;;;7.97;;
19189;SDS011;9727;50.200;19.038;2023-07-09T01:23:05;13.17;;;8.57;;
19189;SDS011;9727;50.200;19.038;2023-07-09T01:25:36;16.10;;;9.53;;
19189;SDS011;9727;50.200;19.038;2023-07-09T01:28:02;13.37;;;8.63;;
19189;SDS011;9727;50.200;19.038;2023-07-09T01:30:30;12.73;;;8.87;;
19189;SDS011;9727;50.200;19.038;2023-07-09T01:32:59;12.03;;;9.07;;
19189;SDS011;9727;50.200;19.038;2023-07-09T01:35:30;13.17;;;8.90;;
19189;SDS011;9727;50.200;19.038;2023-07-09T01:37:57;13.07;;;8.77;;
19189;SDS011;9727;50.200;19.038;2023-07-09T01:40:28;16.90;;;9.17;;
19189;SDS011;9727;50.200;19.038;2023-07-09T01:42:56;13.83;;;9.10;;
19189;SDS011;9727;50.200;19.038;2023-07-09T01:45:23;12.97;;;9.03;;
19189;SDS011;9727;50.200;19.038;2023-07-09T01:47:51;15.43;;;9.13;;
19189;SDS011;9727;50.200;19.038;2023-07-09T01:50:21;15.43;;;9.57;;
19189;SDS011;9727;50.200;19.038;2023-07-09T01:52:49;13.43;;;10.07;;
19189;SDS011;9727;50.200;19.038;2023-07-09T01:55:17;18.03;;;9.53;;
19189;SDS011;9727;50.200;19.038;2023-07-09T01:57:45;14.03;;;9.30;;
19189;SDS011;9727;50.200;19.038;2023-07-09T02:00:12;15.00;;;9.80;;
19189;SDS011;9727;50.200;19.038;2023-07-09T02:02:40;13.63;;;9.10;;
19189;SDS011;9727;50.200;19.038;2023-07-09T02:05:08;11.83;;;9.30;;
19189;SDS011;9727;50.200;19.038;2023-07-09T02:07:38;13.33;;;9.40;;
19189;SDS011;9727;50.200;19.038;2023-07-09T02:10:05;13.47;;;9.73;;
19189;SDS011;9727;50.200;19.038;2023-07-09T02:12:32;15.17;;;9.67;;
19189;SDS011;9727;50.200;19.038;2023-07-09T02:15:00;13.23;;;9.10;;
19189;SDS011;9727;50.200;19.038;2023-07-09T02:17:27;13.70;;;9.50;;
19189;SDS011;9727;50.200;19.038;2023-07-09T02:19:53;15.87;;;9.20;;
19189;SDS011;9727;50.200;19.038;2023-07-09T02:22:20;13.27;;;9.40;;
19189;SDS011;9727;50.200;19.038;2023-07-09T02:24:46;13.10;;;9.27;;
19189;SDS011;9727;50.200;19.038;2023-07-09T02:27:15;14.47;;;9.70;;
19189;SDS011;9727;50.200;19.038;2023-07-09T02:29:42;16.43;;;9.87;;
19189;SDS011;9727;50.200;19.038;2023-07-09T02:32:18;12.77;;;9.30;;
19189;SDS011;9727;50.200;19.038;2023-07-09T02:34:45;12.97;;;9.33;;
19189;SDS011;9727;50.200;19.038;2023-07-09T02:37:14;18.57;;;9.47;;
19189;SDS011;9727;50.200;19.038;2023-07-09T02:39:40;13.77;;;9.03;;
19189;SDS011;9727;50.200;19.038;2023-07-09T02:42:07;15.10;;;9.70;;
19189;SDS011;9727;50.200;19.038;2023-07-09T02:44:35;13.70;;;10.10;;
19189;SDS011;9727;50.200;19.038;2023-07-09T02:47:01;15.17;;;10.17;;
19189;SDS011;9727;50.200;19.038;2023-07-09T02:49:36;11.87;;;8.97;;
19189;SDS011;9727;50.200;19.038;2023-07-09T02:52:03;13.60;;;8.80;;
19189;SDS011;9727;50.200;19.038;2023-07-09T02:54:29;13.33;;;9.57;;
19189;SDS011;9727;50.200;19.038;2023-07-09T02:56:56;14.90;;;9.90;;
19189;SDS011;9727;50.200;19.038;2023-07-09T02:59:23;14.27;;;9.90;;
19189;SDS011;9727;50.200;19.038;2023-07-09T03:01:51;15.83;;;10.03;;
19189;SDS011;9727;50.200;19.038;2023-07-09T03:04:18;11.97;;;8.90;;
19189;SDS011;9727;50.200;19.038;2023-07-09T03:06:47;17.70;;;9.97;;
19189;SDS011;9727;50.200;19.038;2023-07-09T03:09:13;12.30;;;8.83;;
19189;SDS011;9727;50.200;19.038;2023-07-09T03:11:40;15.80;;;10.07;;
19189;SDS011;9727;50.200;19.038;2023-07-09T03:14:08;11.23;;;8.73;;
19189;SDS011;9727;50.200;19.038;2023-07-09T03:16:34;14.40;;;9.10;;
19189;SDS011;9727;50.200;19.038;2023-07-09T03:19:01;12.20;;;8.90;;
19189;SDS011;9727;50.200;19.038;2023-07-09T03:21:28;12.23;;;9.30;;
19189;SDS011;9727;50.200;19.038;2023-07-09T03:23:56;15.10;;;9.13;;
19189;SDS011;9727;50.200;19.038;2023-07-09T03:26:23;14.87;;;8.43;;
19189;SDS011;9727;50.200;19.038;2023-07-09T03:28:51;14.20;;;8.73;;
19189;SDS011;9727;50.200;19.038;2023-07-09T03:31:18;12.63;;;8.53;;
19189;SDS011;9727;50.200;19.038;2023-07-09T03:33:45;11.40;;;8.07;;
19189;SDS011;9727;50.200;19.038;2023-07-09T03:36:12;14.30;;;8.67;;
19189;SDS011;9727;50.200;19.038;2023-07-09T03:38:39;11.40;;;8.13;;
19189;SDS011;9727;50.200;19.038;2023-07-09T03:41:07;12.70;;;8.43;;
19189;SDS011;9727;50.200;19.038;2023-07-09T03:43:33;14.00;;;8.17;;
19189;SDS011;9727;50.200;19.038;2023-07-09T03:46:00;9.47;;;8.23;;
19189;SDS011;9727;50.200;19.038;2023-07-09T03:48:28;14.83;;;8.43;;
19189;SDS011;9727;50.200;19.038;2023-07-09T03:50:55;12.83;;;7.97;;
19189;SDS011;9727;50.200;19.038;2023-07-09T03:53:22;13.07;;;8.37;;
19189;SDS011;9727;50.200;19.038;2023-07-09T03:55:51;13.10;;;8.23;;
19189;SDS011;9727;50.200;19.038;2023-07-09T03:58:20;14.57;;;8.43;;
19189;SDS011;9727;50.200;19.038;2023-07-09T04:00:47;12.33;;;8.37;;
19189;SDS011;9727;50.200;19.038;2023-07-09T04:03:14;11.00;;;8.20;;
19189;SDS011;9727;50.200;19.038;2023-07-09T04:05:40;12.57;;;8.53;;
19189;SDS011;9727;50.200;19.038;2023-07-09T04:08:07;11.20;;;8.57;;
19189;SDS011;9727;50.200;19.038;2023-07-09T04:10:33;14.73;;;8.50;;
19189;SDS011;9727;50.200;19.038;2023-07-09T04:13:00;13.87;;;8.40;;
19189;SDS011;9727;50.200;19.038;2023-07-09T04:15:28;12.03;;;8.60;;
19189;SDS011;9727;50.200;19.038;2023-07-09T04:17:55;14.53;;;8.47;;
19189;SDS011;9727;50.200;19.038;2023-07-09T04:20:22;11.80;;;8.90;;
19189;SDS011;9727;50.200;19.038;2023-07-09T04:22:48;15.37;;;8.97;;
19189;SDS011;9727;50.200;19.038;2023-07-09T04:25:15;13.13;;;8.73;;
19189;SDS011;9727;50.200;19.038;2023-07-09T04:27:42;17.33;;;9.83;;
19189;SDS011;9727;50.200;19.038;2023-07-09T04:30:09;11.67;;;8.53;;
19189;SDS011;9727;50.200;19.038;2023-07-09T04:32:38;15.00;;;9.50;;
19189;SDS011;9727;50.200;19.038;2023-07-09T04:35:04;14.70;;;8.73;;
19189;SDS011;9727;50.200;19.038;2023-07-09T04:37:32;13.60;;;9.27;;
19189;SDS011;9727;50.200;19.038;2023-07-09T04:39:58;14.23;;;9.80;;
19189;SDS011;9727;50.200;19.038;2023-07-09T04:42:29;15.97;;;9.43;;
19189;SDS011;9727;50.200;19.038;2023-07-09T04:44:56;20.40;;;9.87;;
19189;SDS011;9727;50.200;19.038;2023-07-09T04:47:22;14.77;;;9.33;;
19189;SDS011;9727;50.200;19.038;2023-07-09T04:49:50;14.93;;;8.83;;
19189;SDS011;9727;50.200;19.038;2023-07-09T04:52:17;15.37;;;9.30;;
19189;SDS011;9727;50.200;19.038;2023-07-09T04:54:44;12.67;;;8.83;;
19189;SDS011;9727;50.200;19.038;2023-07-09T04:57:10;13.87;;;8.43;;
19189;SDS011;9727;50.200;19.038;2023-07-09T04:59:37;12.90;;;8.97;;
19189;SDS011;9727;50.200;19.038;2023-07-09T05:02:04;12.35;;;8.23;;
19189;SDS011;9727;50.200;19.038;2023-07-09T05:04:31;12.90;;;8.10;;
19189;SDS011;9727;50.200;19.038;2023-07-09T05:06:59;12.35;;;8.25;;
19189;SDS011;9727;50.200;19.038;2023-07-09T05:09:26;11.43;;;7.78;;
19189;SDS011;9727;50.200;19.038;2023-07-09T05:11:53;14.38;;;9.02;;
19189;SDS011;9727;50.200;19.038;2023-07-09T05:14:19;12.85;;;8.20;;
19189;SDS011;9727;50.200;19.038;2023-07-09T05:16:46;14.80;;;7.75;;
19189;SDS011;9727;50.200;19.038;2023-07-09T05:19:12;10.88;;;7.80;;
19189;SDS011;9727;50.200;19.038;2023-07-09T05:21:39;12.18;;;7.85;;
19189;SDS011;9727;50.200;19.038;2023-07-09T05:24:12;11.77;;;7.25;;
19189;SDS011;9727;50.200;19.038;2023-07-09T05:26:41;10.27;;;7.70;;
19189;SDS011;9727;50.200;19.038;2023-07-09T05:29:08;10.80;;;8.00;;
19189;SDS011;9727;50.200;19.038;2023-07-09T05:31:35;14.25;;;8.15;;
19189;SDS011;9727;50.200;19.038;2023-07-09T05:34:02;9.55;;;7.10;;
19189;SDS011;9727;50.200;19.038;2023-07-09T05:36:29;12.38;;;7.85;;
19189;SDS011;9727;50.200;19.038;2023-07-09T05:38:56;11.93;;;7.47;;
19189;SDS011;9727;50.200;19.038;2023-07-09T05:41:24;12.40;;;7.30;;
19189;SDS011;9727;50.200;19.038;2023-07-09T05:43:53;11.57;;;7.05;;
19189;SDS011;9727;50.200;19.038;2023-07-09T05:46:21;11.85;;;7.00;;
19189;SDS011;9727;50.200;19.038;2023-07-09T05:48:48;10.13;;;7.07;;
19189;SDS011;9727;50.200;19.038;2023-07-09T05:51:15;14.60;;;7.30;;
19189;SDS011;9727;50.200;19.038;2023-07-09T05:53:42;11.32;;;7.05;;
19189;SDS011;9727;50.200;19.038;2023-07-09T05:56:11;10.35;;;7.13;;
19189;SDS011;9727;50.200;19.038;2023-07-09T05:58:39;11.85;;;7.32;;
19189;SDS011;9727;50.200;19.038;2023-07-09T06:01:06;14.55;;;6.72;;
19189;SDS011;9727;50.200;19.038;2023-07-09T06:03:33;14.80;;;6.90;;
19189;SDS011;9727;50.200;19.038;2023-07-09T06:06:00;11.05;;;6.65;;
19189;SDS011;9727;50.200;19.038;2023-07-09T06:08:26;10.95;;;7.30;;
19189;SDS011;9727;50.200;19.038;2023-07-09T06:10:56;9.95;;;6.90;;
19189;SDS011;9727;50.200;19.038;2023-07-09T06:13:23;14.00;;;7.00;;
19189;SDS011;9727;50.200;19.038;2023-07-09T06:15:57;10.55;;;6.57;;
19189;SDS011;9727;50.200;19.038;2023-07-09T06:18:24;10.07;;;6.82;;
19189;SDS011;9727;50.200;19.038;2023-07-09T06:20:55;10.88;;;6.75;;
19189;SDS011;9727;50.200;19.038;2023-07-09T06:23:22;10.25;;;7.40;;
19189;SDS011;9727;50.200;19.038;2023-07-09T06:25:48;9.13;;;6.88;;
19189;SDS011;9727;50.200;19.038;2023-07-09T06:28:16;12.68;;;6.85;;
19189;SDS011;9727;50.200;19.038;2023-07-09T06:30:43;10.02;;;6.82;;
19189;SDS011;9727;50.200;19.038;2023-07-09T06:33:12;12.55;;;6.95;;
19189;SDS011;9727;50.200;19.038;2023-07-09T06:35:39;8.48;;;6.53;;
19189;SDS011;9727;50.200;19.038;2023-07-09T06:38:11;9.63;;;6.47;;
19189;SDS011;9727;50.200;19.038;2023-07-09T06:40:38;8.55;;;6.20;;
19189;SDS011;9727;50.200;19.038;2023-07-09T06:43:04;8.63;;;6.28;;
19189;SDS011;9727;50.200;19.038;2023-07-09T06:45:31;10.68;;;6.72;;
19189;SDS011;9727;50.200;19.038;2023-07-09T06:47:58;9.27;;;6.03;;
19189;SDS011;9727;50.200;19.038;2023-07-09T06:50:29;11.95;;;6.63;;
19189;SDS011;9727;50.200;19.038;2023-07-09T06:52:58;12.68;;;6.25;;
19189;SDS011;9727;50.200;19.038;2023-07-09T06:55:26;9.93;;;6.72;;
19189;SDS011;9727;50.200;19.038;2023-07-09T06:57:53;9.75;;;6.60;;
19189;SDS011;9727;50.200;19.038;2023-07-09T07:00:19;11.00;;;6.50;;
19189;SDS011;9727;50.200;19.038;2023-07-09T07:02:46;10.15;;;6.95;;
19189;SDS011;9727;50.200;19.038;2023-07-09T07:05:13;15.77;;;6.28;;
19189;SDS011;9727;50.200;19.038;2023-07-09T07:07:41;7.38;;;6.07;;
19189;SDS011;9727;50.200;19.038;2023-07-09T07:10:08;10.25;;;6.15;;
19189;SDS011;9727;50.200;19.038;2023-07-09T07:12:40;9.63;;;6.18;;
19189;SDS011;9727;50.200;19.038;2023-07-09T07:15:07;9.70;;;6.90;;
19189;SDS011;9727;50.200;19.038;2023-07-09T07:17:34;8.55;;;6.47;;
19189;SDS011;9727;50.200;19.038;2023-07-09T07:20:01;11.05;;;6.00;;
19189;SDS011;9727;50.200;19.038;2023-07-09T07:22:29;12.07;;;6.18;;
19189;SDS011;9727;50.200;19.038;2023-07-09T07:24:57;8.85;;;6.20;;
19189;SDS011;9727;50.200;19.038;2023-07-09T07:27:23;12.25;;;6.80;;
19189;SDS011;9727;50.200;19.038;2023-07-09T07:29:51;8.30;;;6.55;;
19189;SDS011;9727;50.200;19.038;2023-07-09T07:32:19;8.20;;;5.70;;
19189;SDS011;9727;50.200;19.038;2023-07-09T07:34:46;8.82;;;6.10;;
19189;SDS011;9727;50.200;19.038;2023-07-09T07:37:12;6.65;;;5.30;;
19189;SDS011;9727;50.200;19.038;2023-07-09T07:39:39;7.07;;;5.47;;
19189;SDS011;9727;50.200;19.038;2023-07-09T07:42:07;5.45;;;4.82;;
19189;SDS011;9727;50.200;19.038;2023-07-09T07:44:39;7.28;;;5.45;;
19189;SDS011;9727;50.200;19.038;2023-07-09T07:47:06;7.38;;;5.05;;
19189;SDS011;9727;50.200;19.038;2023-07-09T07:49:40;6.57;;;5.15;;
19189;SDS011;9727;50.200;19.038;2023-07-09T07:52:07;6.28;;;4.93;;
19189;SDS011;9727;50.200;19.038;2023-07-09T07:54:33;8.15;;;5.00;;
19189;SDS011;9727;50.200;19.038;2023-07-09T07:57:03;7.57;;;5.00;;
19189;SDS011;9727;50.200;19.038;2023-07-09T07:59:31;6.78;;;4.68;;
19189;SDS011;9727;50.200;19.038;2023-07-09T08:02:00;6.63;;;4.72;;
19189;SDS011;9727;50.200;19.038;2023-07-09T08:04:29;6.00;;;4.90;;
19189;SDS011;9727;50.200;19.038;2023-07-09T08:06:56;8.77;;;5.00;;
19189;SDS011;9727;50.200;19.038;2023-07-09T08:09:23;5.20;;;4.38;;
19189;SDS011;9727;50.200;19.038;2023-07-09T08:11:59;5.60;;;4.45;;
19189;SDS011;9727;50.200;19.038;2023-07-09T08:14:26;4.63;;;4.00;;
19189;SDS011;9727;50.200;19.038;2023-07-09T08:16:55;4.57;;;3.60;;
19189;SDS011;9727;50.200;19.038;2023-07-09T08:19:21;5.97;;;4.00;;
19189;SDS011;9727;50.200;19.038;2023-07-09T08:21:48;6.45;;;4.35;;
19189;SDS011;9727;50.200;19.038;2023-07-09T08:24:14;4.75;;;4.22;;
19189;SDS011;9727;50.200;19.038;2023-07-09T08:26:41;4.85;;;3.70;;
19189;SDS011;9727;50.200;19.038;2023-07-09T08:29:10;6.30;;;3.90;;
19189;SDS011;9727;50.200;19.038;2023-07-09T08:31:37;4.75;;;3.80;;
19189;SDS011;9727;50.200;19.038;2023-07-09T08:34:05;6.60;;;4.35;;
19189;SDS011;9727;50.200;19.038;2023-07-09T08:36:32;5.25;;;4.25;;
19189;SDS011;9727;50.200;19.038;2023-07-09T08:39:00;5.80;;;4.18;;
19189;SDS011;9727;50.200;19.038;2023-07-09T08:41:33;5.72;;;4.00;;
19189;SDS011;9727;50.200;19.038;2023-07-09T08:44:07;4.25;;;3.60;;
19189;SDS011;9727;50.200;19.038;2023-07-09T08:46:44;5.57;;;3.70;;
19189;SDS011;9727;50.200;19.038;2023-07-09T08:49:16;5.63;;;3.60;;
19189;SDS011;9727;50.200;19.038;2023-07-09T08:51:43;6.90;;;4.30;;
19189;SDS011;9727;50.200;19.038;2023-07-09T08:56:45;5.72;;;3.67;;
19189;SDS011;9727;50.200;19.038;2023-07-09T08:59:14;5.50;;;3.63;;
19189;SDS011;9727;50.200;19.038;2023-07-09T09:01:44;4.05;;;3.60;;
19189;SDS011;9727;50.200;19.038;2023-07-09T09:04:15;5.80;;;3.65;;
19189;SDS011;9727;50.200;19.038;2023-07-09T09:06:47;4.47;;;3.80;;
19189;SDS011;9727;50.200;19.038;2023-07-09T09:09:20;5.30;;;3.63;;
19189;SDS011;9727;50.200;19.038;2023-07-09T09:11:49;5.15;;;3.63;;
19189;SDS011;9727;50.200;19.038;2023-07-09T09:14:24;9.82;;;3.95;;
19189;SDS011;9727;50.200;19.038;2023-07-09T09:17:03;7.47;;;3.90;;
19189;SDS011;9727;50.200;19.038;2023-07-09T09:19:44;4.60;;;3.60;;
19189;SDS011;9727;50.200;19.038;2023-07-09T09:22:15;4.88;;;3.70;;
19189;SDS011;9727;50.200;19.038;2023-07-09T09:33:05;5.38;;;3.78;;
19189;SDS011;9727;50.200;19.038;2023-07-09T09:35:33;4.80;;;3.60;;
19189;SDS011;9727;50.200;19.038;2023-07-09T09:38:10;4.28;;;3.65;;
19189;SDS011;9727;50.200;19.038;2023-07-09T09:40:39;7.13;;;3.55;;
19189;SDS011;9727;50.200;19.038;2023-07-09T09:43:16;4.90;;;3.58;;
19189;SDS011;9727;50.200;19.038;2023-07-09T09:45:45;6.80;;;3.90;;
19189;SDS011;9727;50.200;19.038;2023-07-09T09:48:13;4.80;;;3.53;;
19189;SDS011;9727;50.200;19.038;2023-07-09T09:50:50;4.57;;;3.67;;
19189;SDS011;9727;50.200;19.038;2023-07-09T09:53:20;4.70;;;3.90;;
19189;SDS011;9727;50.200;19.038;2023-07-09T09:55:48;6.18;;;4.03;;
19189;SDS011;9727;50.200;19.038;2023-07-09T09:58:18;5.72;;;3.83;;
19189;SDS011;9727;50.200;19.038;2023-07-09T10:00:49;5.93;;;4.10;;
19189;SDS011;9727;50.200;19.038;2023-07-09T10:03:17;5.35;;;3.80;;
19189;SDS011;9727;50.200;19.038;2023-07-09T10:05:49;4.82;;;3.90;;
19189;SDS011;9727;50.200;19.038;2023-07-09T10:08:18;4.25;;;3.58;;
19189;SDS011;9727;50.200;19.038;2023-07-09T10:10:50;4.68;;;3.58;;
19189;SDS011;9727;50.200;19.038;2023-07-09T10:13:20;4.55;;;3.95;;
19189;SDS011;9727;50.200;19.038;2023-07-09T10:15:56;5.20;;;3.50;;
19189;SDS011;9727;50.200;19.038;2023-07-09T10:18:29;4.32;;;3.85;;
19189;SDS011;9727;50.200;19.038;2023-07-09T10:21:01;5.13;;;3.80;;
19189;SDS011;9727;50.200;19.038;2023-07-09T10:23:31;5.75;;;4.40;;
19189;SDS011;9727;50.200;19.038;2023-07-09T10:26:09;6.38;;;3.85;;
19189;SDS011;9727;50.200;19.038;2023-07-09T10:31:23;4.43;;;3.65;;
19189;SDS011;9727;50.200;19.038;2023-07-09T10:33:59;3.58;;;3.28;;
19189;SDS011;9727;50.200;19.038;2023-07-09T10:36:31;7.30;;;4.40;;
19189;SDS011;9727;50.200;19.038;2023-07-09T10:39:03;6.50;;;4.00;;
19189;SDS011;9727;50.200;19.038;2023-07-09T10:41:43;6.30;;;4.03;;
19189;SDS011;9727;50.200;19.038;2023-07-09T10:44:13;6.82;;;4.00;;
19189;SDS011;9727;50.200;19.038;2023-07-09T10:46:43;4.47;;;4.07;;
19189;SDS011;9727;50.200;19.038;2023-07-09T10:49:14;4.03;;;3.72;;
19189;SDS011;9727;50.200;19.038;2023-07-09T10:51:41;6.53;;;3.97;;
19189;SDS011;9727;50.200;19.038;2023-07-09T10:54:14;3.92;;;3.53;;
19189;SDS011;9727;50.200;19.038;2023-07-09T10:56:41;4.35;;;3.90;;
19189;SDS011;9727;50.200;19.038;2023-07-09T10:59:16;5.28;;;4.10;;
19189;SDS011;9727;50.200;19.038;2023-07-09T11:01:46;4.50;;;3.85;;
19189;SDS011;9727;50.200;19.038;2023-07-09T11:04:15;6.10;;;3.67;;
19189;SDS011;9727;50.200;19.038;2023-07-09T11:06:45;6.60;;;4.05;;
19189;SDS011;9727;50.200;19.038;2023-07-09T11:09:15;5.32;;;4.00;;
19189;SDS011;9727;50.200;19.038;2023-07-09T11:11:45;5.95;;;3.72;;
19189;SDS011;9727;50.200;19.038;2023-07-09T11:14:21;3.78;;;3.45;;
19189;SDS011;9727;50.200;19.038;2023-07-09T11:16:50;4.05;;;3.47;;
19189;SDS011;9727;50.200;19.038;2023-07-09T11:19:18;5.45;;;3.63;;
19189;SDS011;9727;50.200;19.038;2023-07-09T11:21:45;3.88;;;3.47;;
19189;SDS011;9727;50.200;19.038;2023-07-09T11:24:24;4.75;;;3.53;;
19189;SDS011;9727;50.200;19.038;2023-07-09T11:26:53;4.38;;;3.40;;
19189;SDS011;9727;50.200;19.038;2023-07-09T11:29:22;4.78;;;3.88;;
19189;SDS011;9727;50.200;19.038;2023-07-09T11:31:49;4.18;;;3.28;;
19189;SDS011;9727;50.200;19.038;2023-07-09T11:34:19;4.63;;;3.55;;
19189;SDS011;9727;50.200;19.038;2023-07-09T11:36:48;4.55;;;3.60;;
19189;SDS011;9727;50.200;19.038;2023-07-09T11:39:21;7.72;;;3.88;;
19189;SDS011;9727;50.200;19.038;2023-07-09T11:41:48;5.55;;;3.53;;
19189;SDS011;9727;50.200;19.038;2023-07-09T11:44:16;7.93;;;4.03;;
19189;SDS011;9727;50.200;19.038;2023-07-09T11:46:48;4.78;;;3.97;;
19189;SDS011;9727;50.200;19.038;2023-07-09T11:49:15;3.85;;;3.45;;
19189;SDS011;9727;50.200;19.038;2023-07-09T11:51:46;5.53;;;3.80;;
19189;SDS011;9727;50.200;19.038;2023-07-09T11:54:14;4.15;;;3.75;;
19189;SDS011;9727;50.200;19.038;2023-07-09T11:56:52;5.18;;;3.88;;
19189;SDS011;9727;50.200;19.038;2023-07-09T11:59:19;4.65;;;3.83;;
19189;SDS011;9727;50.200;19.038;2023-07-09T12:01:47;6.95;;;4.60;;
19189;SDS011;9727;50.200;19.038;2023-07-09T12:04:17;8.20;;;3.92;;
19189;SDS011;9727;50.200;19.038;2023-07-09T12:06:44;4.60;;;4.05;;
19189;SDS011;9727;50.200;19.038;2023-07-09T12:09:20;6.88;;;4.05;;
19189;SDS011;9727;50.200;19.038;2023-07-09T12:11:48;4.40;;;4.00;;
19189;SDS011;9727;50.200;19.038;2023-07-09T12:14:17;4.55;;;3.75;;
19189;SDS011;9727;50.200;19.038;2023-07-09T12:16:48;4.82;;;3.85;;
19189;SDS011;9727;50.200;19.038;2023-07-09T12:19:16;7.18;;;4.18;;
19189;SDS011;9727;50.200;19.038;2023-07-09T12:21:43;5.35;;;4.00;;
19189;SDS011;9727;50.200;19.038;2023-07-09T12:24:15;5.93;;;3.97;;
19189;SDS011;9727;50.200;19.038;2023-07-09T12:26:47;6.07;;;4.10;;
19189;SDS011;9727;50.200;19.038;2023-07-09T12:29:16;4.32;;;3.40;;
19189;SDS011;9727;50.200;19.038;2023-07-09T12:31:43;5.65;;;4.03;;
19189;SDS011;9727;50.200;19.038;2023-07-09T12:34:12;4.65;;;3.92;;
19189;SDS011;9727;50.200;19.038;2023-07-09T12:36:39;6.25;;;4.10;;
19189;SDS011;9727;50.200;19.038;2023-07-09T12:39:09;6.20;;;4.03;;
19189;SDS011;9727;50.200;19.038;2023-07-09T12:41:40;4.03;;;3.35;;
19189;SDS011;9727;50.200;19.038;2023-07-09T12:44:11;4.65;;;3.90;;
19189;SDS011;9727;50.200;19.038;2023-07-09T12:46:41;4.70;;;3.85;;
19189;SDS011;9727;50.200;19.038;2023-07-09T12:49:11;6.88;;;4.10;;
19189;SDS011;9727;50.200;19.038;2023-07-09T12:51:40;7.10;;;4.07;;
19189;SDS011;9727;50.200;19.038;2023-07-09T12:54:11;4.38;;;3.97;;
19189;SDS011;9727;50.200;19.038;2023-07-09T12:56:39;8.05;;;4.03;;
19189;SDS011;9727;50.200;19.038;2023-07-09T12:59:13;5.30;;;4.00;;
19189;SDS011;9727;50.200;19.038;2023-07-09T13:01:41;4.45;;;3.83;;
19189;SDS011;9727;50.200;19.038;2023-07-09T13:04:08;4.18;;;3.72;;
19189;SDS011;9727;50.200;19.038;2023-07-09T13:06:38;4.47;;;3.88;;
19189;SDS011;9727;50.200;19.038;2023-07-09T13:09:11;4.40;;;3.63;;
19189;SDS011;9727;50.200;19.038;2023-07-09T13:11:39;4.47;;;3.97;;
19189;SDS011;9727;50.200;19.038;2023-07-09T13:14:13;4.15;;;3.72;;
19189;SDS011;9727;50.200;19.038;2023-07-09T13:16:42;5.05;;;3.90;;
19189;SDS011;9727;50.200;19.038;2023-07-09T13:19:08;5.35;;;4.13;;
19189;SDS011;9727;50.200;19.038;2023-07-09T13:21:42;6.13;;;4.22;;
19189;SDS011;9727;50.200;19.038;2023-07-09T13:24:12;5.43;;;3.90;;
19189;SDS011;9727;50.200;19.038;2023-07-09T13:26:42;5.28;;;4.35;;
19189;SDS011;9727;50.200;19.038;2023-07-09T13:29:12;5.90;;;4.15;;
19189;SDS011;9727;50.200;19.038;2023-07-09T13:31:40;7.90;;;4.22;;
19189;SDS011;9727;50.200;19.038;2023-07-09T13:34:08;5.30;;;4.10;;
19189;SDS011;9727;50.200;19.038;2023-07-09T13:36:40;5.22;;;4.20;;
19189;SDS011;9727;50.200;19.038;2023-07-09T13:39:08;5.18;;;4.30;;
19189;SDS011;9727;50.200;19.038;2023-07-09T13:41:36;4.53;;;4.05;;
19189;SDS011;9727;50.200;19.038;2023-07-09T13:44:04;4.60;;;4.13;;
19189;SDS011;9727;50.200;19.038;2023-07-09T13:46:39;4.75;;;4.28;;
19189;SDS011;9727;50.200;19.038;2023-07-09T13:49:08;4.45;;;4.05;;
19189;SDS011;9727;50.200;19.038;2023-07-09T13:51:36;6.03;;;3.47;;
19189;SDS011;9727;50.200;19.038;2023-07-09T13:54:08;6.20;;;4.03;;
19189;SDS011;9727;50.200;19.038;2023-07-09T13:56:40;5.18;;;4.22;;
19189;SDS011;9727;50.200;19.038;2023-07-09T13:59:10;5.25;;;4.25;;
19189;SDS011;9727;50.200;19.038;2023-07-09T14:01:38;6.68;;;4.10;;
19189;SDS011;9727;50.200;19.038;2023-07-09T14:04:05;5.90;;;3.88;;
19189;SDS011;9727;50.200;19.038;2023-07-09T14:06:32;3.97;;;3.58;;
19189;SDS011;9727;50.200;19.038;2023-07-09T14:08:59;5.22;;;3.80;;
19189;SDS011;9727;50.200;19.038;2023-07-09T14:11:25;5.03;;;4.07;;
19189;SDS011;9727;50.200;19.038;2023-07-09T14:13:56;5.25;;;3.83;;
19189;SDS011;9727;50.200;19.038;2023-07-09T14:16:22;4.35;;;3.75;;
19189;SDS011;9727;50.200;19.038;2023-07-09T14:18:49;4.63;;;3.85;;
19189;SDS011;9727;50.200;19.038;2023-07-09T14:21:17;7.10;;;4.05;;
19189;SDS011;9727;50.200;19.038;2023-07-09T14:23:45;4.07;;;3.70;;
19189;SDS011;9727;50.200;19.038;2023-07-09T14:26:11;4.43;;;4.03;;
19189;SDS011;9727;50.200;19.038;2023-07-09T14:28:41;6.00;;;4.32;;
19189;SDS011;9727;50.200;19.038;2023-07-09T14:31:13;7.65;;;3.60;;
19189;SDS011;9727;50.200;19.038;2023-07-09T14:33:44;4.93;;;4.30;;
19189;SDS011;9727;50.200;19.038;2023-07-09T14:36:11;4.68;;;3.28;;
19189;SDS011;9727;50.200;19.038;2023-07-09T14:38:38;5.88;;;4.10;;
19189;SDS011;9727;50.200;19.038;2023-07-09T14:41:07;5.70;;;3.83;;
19189;SDS011;9727;50.200;19.038;2023-07-09T14:43:43;4.25;;;3.85;;
19189;SDS011;9727;50.200;19.038;2023-07-09T14:46:09;8.65;;;4.28;;
19189;SDS011;9727;50.200;19.038;2023-07-09T14:48:39;4.75;;;3.75;;
19189;SDS011;9727;50.200;19.038;2023-07-09T14:51:08;4.20;;;3.67;;
19189;SDS011;9727;50.200;19.038;2023-07-09T14:53:38;10.25;;;3.80;;
19189;SDS011;9727;50.200;19.038;2023-07-09T14:56:05;4.28;;;3.72;;
19189;SDS011;9727;50.200;19.038;2023-07-09T14:58:32;4.70;;;4.05;;
19189;SDS011;9727;50.200;19.038;2023-07-09T15:00:58;6.40;;;3.72;;
19189;SDS011;9727;50.200;19.038;2023-07-09T15:03:25;5.78;;;3.70;;